This is the latest recevied weather packets stored in our database for station/object N4JTC. If no packets are shown the sender has not sent any weather packets the latest 10 day(s).
| Time | Temp. | Humidity | Pressure | Rain* | Wind** | Luminosity | Snow |
|---|---|---|---|---|---|---|---|
| 1777925703 | 25.56° C | 44% | 1016.3 hPa | 0 mm | - | 668 W/m² | - |
| 1777925403 | 25.56° C | 42% | 1016.4 hPa | 0 mm | - | 668 W/m² | - |
| 1777925102 | 25.56° C | 42% | 1016.6 hPa | 0 mm | - | 674 W/m² | - |
| 1777924503 | 26.11° C | 42% | 1016.6 hPa | 0 mm | - | 692 W/m² | - |
| 1777924203 | 26.11° C | 43% | 1016.9 hPa | 0 mm | - | 704 W/m² | - |
| 1777923903 | 26.11° C | 41% | 1016.8 hPa | 0 mm | - | 707 W/m² | - |
| 1777923602 | 26.67° C | 39% | 1016.9 hPa | 0 mm | - | 708 W/m² | - |
| 1777923303 | 26.11° C | 41% | 1016.9 hPa | 0 mm | - | 715 W/m² | - |
| 1777922703 | 26.11° C | 41% | 1017.1 hPa | 0 mm | - | 729 W/m² | - |
| 1777922403 | 26.67° C | 40% | 1017 hPa | 0 mm | - | 739 W/m² | - |
| 1777922103 | 27.22° C | 40% | 1017.2 hPa | 0 mm | - | 741 W/m² | - |
| 1777921803 | 27.22° C | 40% | 1017 hPa | 0 mm | - | 754 W/m² | - |
| 1777921503 | 26.67° C | 39% | 1017.3 hPa | 0 mm | - | 742 W/m² | - |
| 1777921203 | 27.22° C | 39% | 1017.2 hPa | 0 mm | - | 734 W/m² | - |
| 1777920903 | 26.67° C | 40% | 1017.5 hPa | 0 mm | - | 761 W/m² | - |
| 1777920603 | 26.11° C | 41% | 1017.4 hPa | 0 mm | - | 766 W/m² | - |
| 1777920303 | 25.56° C | 45% | 1017.3 hPa | 0 mm | - | 775 W/m² | - |
| 1777920003 | 26.11° C | 41% | 1017.3 hPa | 0 mm | - | 777 W/m² | - |
| 1777919703 | 26.11° C | 42% | 1017.4 hPa | 0 mm | - | 775 W/m² | - |
| 1777919102 | 26.67° C | 40% | 1017.4 hPa | 0 mm | - | 781 W/m² | - |
| 1777918803 | 26.67° C | 39% | 1017.5 hPa | 0 mm | - | 789 W/m² | - |
| 1777918503 | 26.67° C | 38% | 1017.4 hPa | 0 mm | - | 793 W/m² | - |
| 1777918203 | 26.67° C | 38% | 1017.7 hPa | 0 mm | - | 784 W/m² | - |
| 1777917903 | 26.67° C | 39% | 1017.6 hPa | 0 mm | - | 767 W/m² | - |
| 1777917603 | 26.67° C | 40% | 1017.6 hPa | 0 mm | - | 788 W/m² | - |
* Rain latest hour (hover to see other rain measurements)
** Current wind speed in m/s (hover to see current wind gust speed)